sensor_id;sensor_type;location;lat;lon;timestamp;pressure;altitude;pressure_sealevel;temperature;humidity
61136;BME280;47021;51.340;12.432;2022-10-10T00:01:26;100560.28;;;11.09;63.04
61136;BME280;47021;51.340;12.432;2022-10-10T00:03:53;100556.94;;;11.18;62.91
61136;BME280;47021;51.340;12.432;2022-10-10T00:06:21;100557.06;;;11.17;63.00
61136;BME280;47021;51.340;12.432;2022-10-10T00:08:49;100557.78;;;11.08;62.98
61136;BME280;47021;51.340;12.432;2022-10-10T00:11:15;100554.69;;;11.14;62.80
61136;BME280;47021;51.340;12.432;2022-10-10T00:13:40;100547.94;;;11.00;63.14
61136;BME280;47021;51.340;12.432;2022-10-10T00:19:10;100559.81;;;11.04;63.12
61136;BME280;47021;51.340;12.432;2022-10-10T00:21:36;100546.50;;;10.96;63.56
61136;BME280;47021;51.340;12.432;2022-10-10T00:24:01;100545.22;;;10.91;63.84
61136;BME280;47021;51.340;12.432;2022-10-10T00:26:26;100545.56;;;10.75;64.02
61136;BME280;47021;51.340;12.432;2022-10-10T00:29:10;100545.81;;;10.61;64.65
61136;BME280;47021;51.340;12.432;2022-10-10T00:31:35;100544.56;;;10.43;65.80
61136;BME280;47021;51.340;12.432;2022-10-10T00:34:18;100540.81;;;10.58;65.15
61136;BME280;47021;51.340;12.432;2022-10-10T00:36:47;100544.13;;;10.71;64.94
61136;BME280;47021;51.340;12.432;2022-10-10T00:39:26;100538.06;;;10.48;65.75
61136;BME280;47021;51.340;12.432;2022-10-10T00:41:51;100538.75;;;10.50;65.42
61136;BME280;47021;51.340;12.432;2022-10-10T00:44:16;100537.69;;;10.42;65.51
61136;BME280;47021;51.340;12.432;2022-10-10T00:46:54;100533.91;;;10.68;65.02
61136;BME280;47021;51.340;12.432;2022-10-10T00:49:22;100530.59;;;10.55;65.25
61136;BME280;47021;51.340;12.432;2022-10-10T00:51:50;100528.47;;;10.60;65.26
61136;BME280;47021;51.340;12.432;2022-10-10T00:54:23;100521.59;;;10.70;64.82
61136;BME280;47021;51.340;12.432;2022-10-10T00:57:05;100524.44;;;10.56;65.23
61136;BME280;47021;51.340;12.432;2022-10-10T00:59:35;100519.66;;;10.39;65.94
61136;BME280;47021;51.340;12.432;2022-10-10T01:02:07;100510.88;;;10.05;67.11
61136;BME280;47021;51.340;12.432;2022-10-10T01:04:43;100512.09;;;10.58;65.27
61136;BME280;47021;51.340;12.432;2022-10-10T01:07:13;100508.91;;;10.66;64.63
61136;BME280;47021;51.340;12.432;2022-10-10T01:09:53;100508.13;;;10.30;66.21
61136;BME280;47021;51.340;12.432;2022-10-10T01:22:31;100491.78;;;10.39;66.12
61136;BME280;47021;51.340;12.432;2022-10-10T01:27:46;100489.28;;;10.38;65.83
61136;BME280;47021;51.340;12.432;2022-10-10T01:30:21;100482.16;;;10.29;65.98
61136;BME280;47021;51.340;12.432;2022-10-10T01:32:56;100489.66;;;10.55;65.49
61136;BME280;47021;51.340;12.432;2022-10-10T01:35:33;100479.66;;;10.38;65.93
61136;BME280;47021;51.340;12.432;2022-10-10T01:38:08;100470.41;;;10.34;65.85
61136;BME280;47021;51.340;12.432;2022-10-10T01:40:40;100469.34;;;10.59;64.96
61136;BME280;47021;51.340;12.432;2022-10-10T01:43:19;100467.09;;;10.43;65.66
61136;BME280;47021;51.340;12.432;2022-10-10T01:45:49;100459.88;;;10.58;64.96
61136;BME280;47021;51.340;12.432;2022-10-10T01:48:17;100465.09;;;10.58;65.05
61136;BME280;47021;51.340;12.432;2022-10-10T01:50:54;100466.03;;;10.46;64.91
61136;BME280;47021;51.340;12.432;2022-10-10T02:03:52;100457.59;;;10.42;65.58
61136;BME280;47021;51.340;12.432;2022-10-10T02:06:19;100456.06;;;10.40;65.38
61136;BME280;47021;51.340;12.432;2022-10-10T02:08:53;100451.91;;;10.37;65.49
61136;BME280;47021;51.340;12.432;2022-10-10T02:11:23;100448.47;;;10.37;65.69
61136;BME280;47021;51.340;12.432;2022-10-10T02:13:59;100447.16;;;10.42;65.24
61136;BME280;47021;51.340;12.432;2022-10-10T02:16:27;100447.25;;;10.52;65.32
61136;BME280;47021;51.340;12.432;2022-10-10T02:18:55;100442.03;;;10.41;65.13
61136;BME280;47021;51.340;12.432;2022-10-10T02:21:21;100437.53;;;10.32;65.92
61136;BME280;47021;51.340;12.432;2022-10-10T02:23:49;100441.34;;;10.39;65.44
61136;BME280;47021;51.340;12.432;2022-10-10T02:26:16;100431.13;;;10.25;66.34
61136;BME280;47021;51.340;12.432;2022-10-10T02:28:51;100432.56;;;10.40;65.61
61136;BME280;47021;51.340;12.432;2022-10-10T02:31:54;100430.44;;;10.45;65.36
61136;BME280;47021;51.340;12.432;2022-10-10T02:36:43;100424.84;;;10.38;65.38
61136;BME280;47021;51.340;12.432;2022-10-10T02:39:12;100420.56;;;10.59;65.05
61136;BME280;47021;51.340;12.432;2022-10-10T02:41:38;100417.47;;;10.43;65.73
61136;BME280;47021;51.340;12.432;2022-10-10T02:44:06;100420.44;;;10.50;65.68
61136;BME280;47021;51.340;12.432;2022-10-10T02:46:37;100415.34;;;10.48;64.88
61136;BME280;47021;51.340;12.432;2022-10-10T02:49:02;100410.00;;;10.39;65.66
61136;BME280;47021;51.340;12.432;2022-10-10T02:51:31;100411.56;;;10.41;65.65
61136;BME280;47021;51.340;12.432;2022-10-10T02:53:58;100413.09;;;10.44;65.59
61136;BME280;47021;51.340;12.432;2022-10-10T02:56:26;100400.63;;;10.47;65.27
61136;BME280;47021;51.340;12.432;2022-10-10T03:01:26;100400.88;;;10.44;65.16
61136;BME280;47021;51.340;12.432;2022-10-10T03:03:51;100395.41;;;10.36;65.40
61136;BME280;47021;51.340;12.432;2022-10-10T03:06:16;100395.28;;;10.27;66.17
61136;BME280;47021;51.340;12.432;2022-10-10T03:08:42;100388.91;;;10.42;65.10
61136;BME280;47021;51.340;12.432;2022-10-10T03:11:08;100390.09;;;10.49;64.85
61136;BME280;47021;51.340;12.432;2022-10-10T03:13:34;100394.44;;;10.59;64.50
61136;BME280;47021;51.340;12.432;2022-10-10T03:16:11;100391.50;;;10.53;64.35
61136;BME280;47021;51.340;12.432;2022-10-10T03:18:37;100385.47;;;10.30;64.96
61136;BME280;47021;51.340;12.432;2022-10-10T03:21:05;100382.25;;;10.49;64.65
61136;BME280;47021;51.340;12.432;2022-10-10T03:23:30;100380.13;;;10.54;64.87
61136;BME280;47021;51.340;12.432;2022-10-10T03:26:01;100372.16;;;10.55;64.66
61136;BME280;47021;51.340;12.432;2022-10-10T03:28:38;100371.09;;;10.58;64.27
61136;BME280;47021;51.340;12.432;2022-10-10T03:31:03;100367.06;;;10.54;64.36
61136;BME280;47021;51.340;12.432;2022-10-10T03:33:35;100360.03;;;10.54;64.89
61136;BME280;47021;51.340;12.432;2022-10-10T03:38:32;100356.09;;;10.71;64.44
61136;BME280;47021;51.340;12.432;2022-10-10T03:41:05;100355.75;;;10.64;64.75
61136;BME280;47021;51.340;12.432;2022-10-10T03:43:31;100347.66;;;10.79;64.33
61136;BME280;47021;51.340;12.432;2022-10-10T03:45:57;100346.72;;;10.69;64.25
61136;BME280;47021;51.340;12.432;2022-10-10T03:48:22;100346.84;;;10.67;64.99
61136;BME280;47021;51.340;12.432;2022-10-10T03:50:55;100346.91;;;10.88;64.14
61136;BME280;47021;51.340;12.432;2022-10-10T03:53:22;100339.97;;;10.77;64.61
61136;BME280;47021;51.340;12.432;2022-10-10T03:55:47;100343.34;;;10.89;64.42
61136;BME280;47021;51.340;12.432;2022-10-10T03:58:12;100338.03;;;10.79;64.80
61136;BME280;47021;51.340;12.432;2022-10-10T04:00:40;100342.28;;;10.80;64.78
61136;BME280;47021;51.340;12.432;2022-10-10T04:03:05;100336.97;;;10.82;64.69
61136;BME280;47021;51.340;12.432;2022-10-10T04:05:42;100341.09;;;10.84;64.69
61136;BME280;47021;51.340;12.432;2022-10-10T04:08:14;100341.59;;;10.78;64.79
61136;BME280;47021;51.340;12.432;2022-10-10T04:10:40;100329.50;;;10.77;64.70
61136;BME280;47021;51.340;12.432;2022-10-10T04:13:05;100330.44;;;10.76;64.66
61136;BME280;47021;51.340;12.432;2022-10-10T04:15:30;100333.63;;;10.80;64.51
61136;BME280;47021;51.340;12.432;2022-10-10T04:17:55;100332.22;;;10.76;64.49
61136;BME280;47021;51.340;12.432;2022-10-10T04:20:21;100327.03;;;10.64;64.81
61136;BME280;47021;51.340;12.432;2022-10-10T04:22:47;100325.22;;;10.76;64.58
61136;BME280;47021;51.340;12.432;2022-10-10T04:25:12;100328.91;;;10.74;64.41
61136;BME280;47021;51.340;12.432;2022-10-10T04:27:43;100337.00;;;10.59;64.64
61136;BME280;47021;51.340;12.432;2022-10-10T04:30:10;100328.53;;;10.35;65.44
61136;BME280;47021;51.340;12.432;2022-10-10T04:32:37;100325.09;;;10.13;66.49
61136;BME280;47021;51.340;12.432;2022-10-10T04:35:02;100321.41;;;10.26;66.50
61136;BME280;47021;51.340;12.432;2022-10-10T04:37:28;100326.13;;;10.43;65.74
61136;BME280;47021;51.340;12.432;2022-10-10T04:39:56;100324.69;;;10.50;65.57
61136;BME280;47021;51.340;12.432;2022-10-10T04:42:21;100316.28;;;10.47;65.77
61136;BME280;47021;51.340;12.432;2022-10-10T04:44:49;100307.59;;;10.57;65.33
61136;BME280;47021;51.340;12.432;2022-10-10T04:47:15;100302.97;;;10.61;64.86
61136;BME280;47021;51.340;12.432;2022-10-10T04:49:41;100309.34;;;10.57;64.46
61136;BME280;47021;51.340;12.432;2022-10-10T04:52:13;100307.81;;;10.54;64.68
61136;BME280;47021;51.340;12.432;2022-10-10T04:54:40;100316.03;;;10.50;65.12
61136;BME280;47021;51.340;12.432;2022-10-10T04:57:17;100304.53;;;10.41;65.11
61136;BME280;47021;51.340;12.432;2022-10-10T04:59:43;100313.78;;;10.45;65.09
61136;BME280;47021;51.340;12.432;2022-10-10T05:02:09;100308.19;;;10.50;64.74
61136;BME280;47021;51.340;12.432;2022-10-10T05:04:35;100303.50;;;10.33;64.76
61136;BME280;47021;51.340;12.432;2022-10-10T05:07:02;100300.38;;;10.39;65.11
61136;BME280;47021;51.340;12.432;2022-10-10T05:09:29;100292.66;;;10.48;64.56
61136;BME280;47021;51.340;12.432;2022-10-10T05:11:55;100296.56;;;10.54;64.67
61136;BME280;47021;51.340;12.432;2022-10-10T05:14:20;100297.03;;;10.48;64.84
61136;BME280;47021;51.340;12.432;2022-10-10T05:16:45;100295.13;;;10.50;64.63
61136;BME280;47021;51.340;12.432;2022-10-10T05:19:26;100294.97;;;10.31;64.96
61136;BME280;47021;51.340;12.432;2022-10-10T05:21:52;100302.78;;;10.31;65.24
61136;BME280;47021;51.340;12.432;2022-10-10T05:26:55;100307.28;;;10.40;65.61
61136;BME280;47021;51.340;12.432;2022-10-10T05:29:20;100302.75;;;10.42;65.25
61136;BME280;47021;51.340;12.432;2022-10-10T05:31:46;100291.03;;;10.25;66.34
61136;BME280;47021;51.340;12.432;2022-10-10T05:34:13;100292.28;;;10.53;65.29
61136;BME280;47021;51.340;12.432;2022-10-10T05:36:39;100292.75;;;10.58;65.15
61136;BME280;47021;51.340;12.432;2022-10-10T05:39:13;100291.16;;;10.35;65.51
61136;BME280;47021;51.340;12.432;2022-10-10T05:41:40;100295.41;;;10.25;66.20
61136;BME280;47021;51.340;12.432;2022-10-10T05:44:05;100288.03;;;10.41;65.88
61136;BME280;47021;51.340;12.432;2022-10-10T05:46:36;100280.41;;;10.60;65.07
61136;BME280;47021;51.340;12.432;2022-10-10T05:49:08;100285.41;;;10.52;65.18
61136;BME280;47021;51.340;12.432;2022-10-10T05:51:33;100277.56;;;10.63;65.15
61136;BME280;47021;51.340;12.432;2022-10-10T05:53:59;100278.25;;;10.65;64.71
61136;BME280;47021;51.340;12.432;2022-10-10T05:56:25;100270.41;;;10.65;64.57
61136;BME280;47021;51.340;12.432;2022-10-10T05:58:58;100279.56;;;10.59;65.10
61136;BME280;47021;51.340;12.432;2022-10-10T06:01:29;100276.34;;;10.67;64.84
61136;BME280;47021;51.340;12.432;2022-10-10T06:03:56;100271.59;;;10.72;64.61
61136;BME280;47021;51.340;12.432;2022-10-10T06:06:27;100279.56;;;10.91;64.45
61136;BME280;47021;51.340;12.432;2022-10-10T06:08:58;100276.31;;;10.99;63.71
61136;BME280;47021;51.340;12.432;2022-10-10T06:11:24;100284.09;;;10.89;64.09
61136;BME280;47021;51.340;12.432;2022-10-10T06:13:51;100278.06;;;10.78;64.47
61136;BME280;47021;51.340;12.432;2022-10-10T06:16:16;100288.88;;;11.05;63.59
61136;BME280;47021;51.340;12.432;2022-10-10T06:18:41;100287.56;;;11.10;64.14
61136;BME280;47021;51.340;12.432;2022-10-10T06:21:06;100279.63;;;11.01;64.31
61136;BME280;47021;51.340;12.432;2022-10-10T06:23:44;100287.50;;;11.21;63.28
61136;BME280;47021;51.340;12.432;2022-10-10T06:26:17;100286.28;;;11.25;63.48
61136;BME280;47021;51.340;12.432;2022-10-10T06:28:44;100296.72;;;11.25;63.44
61136;BME280;47021;51.340;12.432;2022-10-10T06:31:13;100295.00;;;11.15;63.82
61136;BME280;47021;51.340;12.432;2022-10-10T06:33:43;100288.19;;;11.03;64.02
61136;BME280;47021;51.340;12.432;2022-10-10T06:36:16;100300.31;;;11.24;63.66
61136;BME280;47021;51.340;12.432;2022-10-10T06:38:44;100291.63;;;11.24;63.69
61136;BME280;47021;51.340;12.432;2022-10-10T06:41:10;100301.47;;;11.31;63.99
61136;BME280;47021;51.340;12.432;2022-10-10T06:43:36;100304.19;;;11.30;63.91
61136;BME280;47021;51.340;12.432;2022-10-10T06:46:09;100303.41;;;11.39;63.41
61136;BME280;47021;51.340;12.432;2022-10-10T06:48:40;100303.41;;;11.18;64.35
61136;BME280;47021;51.340;12.432;2022-10-10T06:51:14;100297.25;;;11.19;64.65
61136;BME280;47021;51.340;12.432;2022-10-10T06:53:39;100301.25;;;11.44;63.55
61136;BME280;47021;51.340;12.432;2022-10-10T06:56:13;100301.53;;;11.41;63.62
61136;BME280;47021;51.340;12.432;2022-10-10T06:58:38;100299.69;;;11.32;63.96
61136;BME280;47021;51.340;12.432;2022-10-10T07:01:05;100293.09;;;11.58;63.43
61136;BME280;47021;51.340;12.432;2022-10-10T07:03:33;100300.41;;;11.64;63.12
61136;BME280;47021;51.340;12.432;2022-10-10T07:06:00;100305.78;;;11.63;62.92
61136;BME280;47021;51.340;12.432;2022-10-10T07:08:27;100300.09;;;11.58;63.64
61136;BME280;47021;51.340;12.432;2022-10-10T07:10:53;100307.69;;;11.61;63.50
61136;BME280;47021;51.340;12.432;2022-10-10T07:13:18;100316.06;;;11.75;62.67
61136;BME280;47021;51.340;12.432;2022-10-10T07:15:46;100304.19;;;11.71;62.86
61136;BME280;47021;51.340;12.432;2022-10-10T07:18:16;100309.19;;;11.74;63.34
61136;BME280;47021;51.340;12.432;2022-10-10T07:20:41;100311.16;;;11.82;62.91
61136;BME280;47021;51.340;12.432;2022-10-10T07:23:07;100310.63;;;11.88;62.99
61136;BME280;47021;51.340;12.432;2022-10-10T07:25:37;100314.84;;;11.79;63.14
61136;BME280;47021;51.340;12.432;2022-10-10T07:28:02;100313.84;;;11.71;63.29
61136;BME280;47021;51.340;12.432;2022-10-10T07:30:43;100295.16;;;11.64;63.53
61136;BME280;47021;51.340;12.432;2022-10-10T07:33:11;100302.66;;;11.89;63.16
61136;BME280;47021;51.340;12.432;2022-10-10T07:35:36;100301.47;;;12.03;62.21
61136;BME280;47021;51.340;12.432;2022-10-10T07:38:01;100296.13;;;12.14;62.67
61136;BME280;47021;51.340;12.432;2022-10-10T07:40:27;100306.72;;;12.13;62.58
61136;BME280;47021;51.340;12.432;2022-10-10T07:43:05;100300.56;;;12.23;62.88
61136;BME280;47021;51.340;12.432;2022-10-10T07:45:34;100303.47;;;12.30;62.81
61136;BME280;47021;51.340;12.432;2022-10-10T07:47:59;100310.66;;;12.37;62.09
61136;BME280;47021;51.340;12.432;2022-10-10T07:50:26;100300.88;;;12.39;61.89
61136;BME280;47021;51.340;12.432;2022-10-10T07:52:52;100303.50;;;12.39;62.29
61136;BME280;47021;51.340;12.432;2022-10-10T07:55:18;100307.66;;;12.42;62.31
61136;BME280;47021;51.340;12.432;2022-10-10T07:57:44;100301.41;;;12.33;62.35
61136;BME280;47021;51.340;12.432;2022-10-10T08:00:09;100314.94;;;12.38;62.62
61136;BME280;47021;51.340;12.432;2022-10-10T08:02:35;100313.75;;;12.71;62.31
61136;BME280;47021;51.340;12.432;2022-10-10T08:05:04;100300.38;;;12.93;62.33
61136;BME280;47021;51.340;12.432;2022-10-10T08:07:29;100308.56;;;13.19;61.70
61136;BME280;47021;51.340;12.432;2022-10-10T08:10:12;100306.13;;;13.64;60.68
61136;BME280;47021;51.340;12.432;2022-10-10T08:12:44;100306.09;;;13.73;60.10
61136;BME280;47021;51.340;12.432;2022-10-10T08:15:09;100302.03;;;13.98;60.19
61136;BME280;47021;51.340;12.432;2022-10-10T08:17:40;100296.38;;;14.30;59.10
61136;BME280;47021;51.340;12.432;2022-10-10T08:20:18;100293.59;;;14.22;59.57
61136;BME280;47021;51.340;12.432;2022-10-10T08:22:43;100287.78;;;14.28;59.20
61136;BME280;47021;51.340;12.432;2022-10-10T08:25:08;100285.72;;;14.49;58.75
61136;BME280;47021;51.340;12.432;2022-10-10T08:27:43;100286.06;;;14.63;58.11
61136;BME280;47021;51.340;12.432;2022-10-10T08:30:08;100287.91;;;14.53;58.55
61136;BME280;47021;51.340;12.432;2022-10-10T08:32:36;100283.03;;;14.76;58.04
61136;BME280;47021;51.340;12.432;2022-10-10T08:35:01;100268.91;;;15.12;57.28
61136;BME280;47021;51.340;12.432;2022-10-10T08:37:28;100269.59;;;14.97;57.19
61136;BME280;47021;51.340;12.432;2022-10-10T08:39:54;100272.50;;;15.11;56.88
61136;BME280;47021;51.340;12.432;2022-10-10T08:42:30;100267.94;;;15.39;56.88
61136;BME280;47021;51.340;12.432;2022-10-10T08:45:02;100270.00;;;15.27;57.32
61136;BME280;47021;51.340;12.432;2022-10-10T08:47:36;100262.91;;;15.02;58.06
61136;BME280;47021;51.340;12.432;2022-10-10T08:50:15;100265.94;;;15.59;57.35
61136;BME280;47021;51.340;12.432;2022-10-10T08:52:59;100253.03;;;16.07;55.30
61136;BME280;47021;51.340;12.432;2022-10-10T08:55:34;100264.31;;;16.33;54.73
61136;BME280;47021;51.340;12.432;2022-10-10T09:00:47;100249.69;;;16.39;54.96
61136;BME280;47021;51.340;12.432;2022-10-10T09:03:40;100254.88;;;16.80;53.93
61136;BME280;47021;51.340;12.432;2022-10-10T09:06:35;100250.41;;;16.97;53.81
61136;BME280;47021;51.340;12.432;2022-10-10T09:22:52;100231.56;;;17.48;52.67
61136;BME280;47021;51.340;12.432;2022-10-10T09:25:27;100233.09;;;17.51;52.73
61136;BME280;47021;51.340;12.432;2022-10-10T09:28:07;100250.06;;;17.48;52.79
61136;BME280;47021;51.340;12.432;2022-10-10T09:30:54;100248.94;;;17.51;52.62
61136;BME280;47021;51.340;12.432;2022-10-10T09:33:30;100247.03;;;17.76;51.92
61136;BME280;47021;51.340;12.432;2022-10-10T09:36:09;100246.22;;;17.67;52.09
61136;BME280;47021;51.340;12.432;2022-10-10T09:38:49;100245.56;;;17.65;52.01
61136;BME280;47021;51.340;12.432;2022-10-10T09:41:38;100240.50;;;17.39;52.34
61136;BME280;47021;51.340;12.432;2022-10-10T09:44:09;100241.56;;;17.77;51.62
61136;BME280;47021;51.340;12.432;2022-10-10T09:46:36;100247.16;;;17.82;51.88
61136;BME280;47021;51.340;12.432;2022-10-10T09:49:13;100242.84;;;17.89;51.75
61136;BME280;47021;51.340;12.432;2022-10-10T09:51:47;100235.25;;;17.94;51.49
61136;BME280;47021;51.340;12.432;2022-10-10T09:54:17;100242.34;;;18.24;51.08
61136;BME280;47021;51.340;12.432;2022-10-10T09:56:56;100224.59;;;18.64;49.79
61136;BME280;47021;51.340;12.432;2022-10-10T09:59:45;100230.59;;;18.80;49.86
61136;BME280;47021;51.340;12.432;2022-10-10T10:04:48;100212.50;;;18.47;50.08
61136;BME280;47021;51.340;12.432;2022-10-10T10:10:17;100219.50;;;18.31;50.32
61136;BME280;47021;51.340;12.432;2022-10-10T10:12:43;100223.28;;;18.37;50.62
61136;BME280;47021;51.340;12.432;2022-10-10T10:15:25;100223.50;;;18.81;49.49
61136;BME280;47021;51.340;12.432;2022-10-10T10:18:20;100212.41;;;18.63;50.35
61136;BME280;47021;51.340;12.432;2022-10-10T10:20:50;100206.69;;;19.11;49.60
61136;BME280;47021;51.340;12.432;2022-10-10T10:23:23;100219.00;;;19.04;49.49
61136;BME280;47021;51.340;12.432;2022-10-10T10:26:04;100211.41;;;19.01;49.52
61136;BME280;47021;51.340;12.432;2022-10-10T10:28:32;100216.84;;;18.85;49.67
61136;BME280;47021;51.340;12.432;2022-10-10T10:31:03;100220.78;;;18.89;49.67
61136;BME280;47021;51.340;12.432;2022-10-10T10:34:50;100222.28;;;19.06;49.58
61136;BME280;47021;51.340;12.432;2022-10-10T10:36:48;100212.41;;;19.00;49.04
61136;BME280;47021;51.340;12.432;2022-10-10T10:45:14;100219.69;;;20.08;47.46
61136;BME280;47021;51.340;12.432;2022-10-10T10:53:19;100206.25;;;20.46;46.79
61136;BME280;47021;51.340;12.432;2022-10-10T10:59:03;100200.59;;;20.49;46.62
61136;BME280;47021;51.340;12.432;2022-10-10T11:04:46;100184.31;;;20.58;46.43
61136;BME280;47021;51.340;12.432;2022-10-10T11:07:20;100182.44;;;20.73;46.57
61136;BME280;47021;51.340;12.432;2022-10-10T11:10:20;100175.84;;;20.27;47.20
61136;BME280;47021;51.340;12.432;2022-10-10T11:18:18;100162.28;;;21.06;46.04
61136;BME280;47021;51.340;12.432;2022-10-10T11:20:51;100169.38;;;20.72;46.96
61136;BME280;47021;51.340;12.432;2022-10-10T11:23:22;100160.00;;;21.03;45.94
61136;BME280;47021;51.340;12.432;2022-10-10T11:26:18;100166.47;;;20.94;45.86
61136;BME280;47021;51.340;12.432;2022-10-10T11:29:08;100168.72;;;20.97;46.19
61136;BME280;47021;51.340;12.432;2022-10-10T11:35:06;100173.75;;;21.07;45.98
61136;BME280;47021;51.340;12.432;2022-10-10T11:37:36;100165.25;;;20.69;46.47
61136;BME280;47021;51.340;12.432;2022-10-10T11:40:05;100171.75;;;20.88;46.73
61136;BME280;47021;51.340;12.432;2022-10-10T11:42:45;100177.31;;;21.21;45.92
61136;BME280;47021;51.340;12.432;2022-10-10T11:45:26;100180.72;;;21.08;46.23
61136;BME280;47021;51.340;12.432;2022-10-10T11:48:17;100178.59;;;21.03;46.00
61136;BME280;47021;51.340;12.432;2022-10-10T11:50:50;100184.97;;;21.09;46.38
61136;BME280;47021;51.340;12.432;2022-10-10T11:53:25;100180.03;;;20.78;47.16
61136;BME280;47021;51.340;12.432;2022-10-10T11:56:09;100175.16;;;20.82;47.25
61136;BME280;47021;51.340;12.432;2022-10-10T11:58:56;100172.41;;;21.52;45.31
61136;BME280;47021;51.340;12.432;2022-10-10T12:01:37;100168.53;;;21.95;45.10
61136;BME280;47021;51.340;12.432;2022-10-10T12:04:06;100147.91;;;22.23;44.31
61136;BME280;47021;51.340;12.432;2022-10-10T12:06:40;100157.09;;;22.14;44.37
61136;BME280;47021;51.340;12.432;2022-10-10T12:09:25;100155.06;;;22.10;44.32
61136;BME280;47021;51.340;12.432;2022-10-10T12:12:00;100166.69;;;21.61;45.54
61136;BME280;47021;51.340;12.432;2022-10-10T12:14:29;100154.13;;;21.83;45.26
61136;BME280;47021;51.340;12.432;2022-10-10T12:16:58;100145.81;;;21.99;44.61
61136;BME280;47021;51.340;12.432;2022-10-10T12:19:28;100141.75;;;22.16;44.29
61136;BME280;47021;51.340;12.432;2022-10-10T12:22:01;100142.41;;;22.25;43.96
61136;BME280;47021;51.340;12.432;2022-10-10T12:24:33;100137.16;;;22.64;43.19
61136;BME280;47021;51.340;12.432;2022-10-10T12:29:47;100132.25;;;22.61;43.59
61136;BME280;47021;51.340;12.432;2022-10-10T12:37:23;100115.59;;;23.11;42.25
61136;BME280;47021;51.340;12.432;2022-10-10T12:48:28;100122.75;;;23.37;42.68
61136;BME280;47021;51.340;12.432;2022-10-10T12:51:00;100121.94;;;23.04;42.33
61136;BME280;47021;51.340;12.432;2022-10-10T12:53:39;100109.06;;;23.01;42.56
61136;BME280;47021;51.340;12.432;2022-10-10T12:56:11;100110.47;;;23.03;41.91
61136;BME280;47021;51.340;12.432;2022-10-10T12:58:40;100107.34;;;23.19;42.57
61136;BME280;47021;51.340;12.432;2022-10-10T13:01:22;100100.97;;;23.47;41.73
61136;BME280;47021;51.340;12.432;2022-10-10T13:03:50;100098.53;;;23.39;41.82
61136;BME280;47021;51.340;12.432;2022-10-10T13:06:36;100101.66;;;23.73;40.99
61136;BME280;47021;51.340;12.432;2022-10-10T13:09:26;100098.72;;;23.81;40.77
61136;BME280;47021;51.340;12.432;2022-10-10T13:14:20;100092.81;;;23.35;41.74
61136;BME280;47021;51.340;12.432;2022-10-10T13:16:45;100090.22;;;23.66;41.69
61136;BME280;47021;51.340;12.432;2022-10-10T13:19:22;100098.59;;;23.76;41.37
61136;BME280;47021;51.340;12.432;2022-10-10T13:21:50;100093.78;;;24.23;40.96
61136;BME280;47021;51.340;12.432;2022-10-10T13:24:18;100090.59;;;24.39;40.53
61136;BME280;47021;51.340;12.432;2022-10-10T13:26:49;100097.31;;;23.85;41.01
61136;BME280;47021;51.340;12.432;2022-10-10T13:29:34;100094.00;;;23.90;41.19
61136;BME280;47021;51.340;12.432;2022-10-10T13:32:12;100087.97;;;24.32;40.79
61136;BME280;47021;51.340;12.432;2022-10-10T13:34:56;100096.38;;;23.67;42.05
61136;BME280;47021;51.340;12.432;2022-10-10T13:37:30;100090.63;;;24.08;41.25
61136;BME280;47021;51.340;12.432;2022-10-10T13:40:02;100088.78;;;24.02;40.91
61136;BME280;47021;51.340;12.432;2022-10-10T13:42:33;100083.63;;;24.07;41.43
61136;BME280;47021;51.340;12.432;2022-10-10T13:45:00;100087.97;;;24.32;41.11
61136;BME280;47021;51.340;12.432;2022-10-10T13:47:43;100087.59;;;24.29;40.93
61136;BME280;47021;51.340;12.432;2022-10-10T13:56:16;100090.16;;;24.42;40.69
61136;BME280;47021;51.340;12.432;2022-10-10T14:01:31;100091.25;;;24.03;41.42
61136;BME280;47021;51.340;12.432;2022-10-10T14:06:32;100091.00;;;23.73;41.70
61136;BME280;47021;51.340;12.432;2022-10-10T14:09:31;100081.31;;;24.17;41.05
61136;BME280;47021;51.340;12.432;2022-10-10T14:12:00;100077.63;;;24.18;40.87
61136;BME280;47021;51.340;12.432;2022-10-10T14:14:48;100077.22;;;24.14;40.64
61136;BME280;47021;51.340;12.432;2022-10-10T14:17:16;100076.03;;;24.10;40.98
61136;BME280;47021;51.340;12.432;2022-10-10T14:19:48;100080.06;;;24.19;40.98
61136;BME280;47021;51.340;12.432;2022-10-10T14:22:16;100076.97;;;24.22;41.36
61136;BME280;47021;51.340;12.432;2022-10-10T14:24:42;100076.22;;;24.15;40.72
61136;BME280;47021;51.340;12.432;2022-10-10T14:27:24;100072.72;;;24.15;41.18
61136;BME280;47021;51.340;12.432;2022-10-10T14:29:56;100072.19;;;24.31;41.02
61136;BME280;47021;51.340;12.432;2022-10-10T14:32:22;100078.28;;;24.38;40.57
61136;BME280;47021;51.340;12.432;2022-10-10T14:34:47;100071.25;;;24.19;41.44
61136;BME280;47021;51.340;12.432;2022-10-10T14:37:27;100072.44;;;23.92;41.69
61136;BME280;47021;51.340;12.432;2022-10-10T14:39:54;100069.34;;;23.95;41.50
61136;BME280;47021;51.340;12.432;2022-10-10T14:42:20;100074.63;;;24.01;41.63
61136;BME280;47021;51.340;12.432;2022-10-10T14:44:46;100065.47;;;24.22;40.91
61136;BME280;47021;51.340;12.432;2022-10-10T14:47:18;100066.25;;;24.53;40.84
61136;BME280;47021;51.340;12.432;2022-10-10T14:49:47;100065.00;;;24.56;41.28
61136;BME280;47021;51.340;12.432;2022-10-10T14:52:14;100063.50;;;24.11;42.34
61136;BME280;47021;51.340;12.432;2022-10-10T14:54:39;100062.41;;;24.18;42.42
61136;BME280;47021;51.340;12.432;2022-10-10T14:57:05;100060.75;;;23.93;43.10